createdAt,value
2018-05-01T00:00:35.059Z,0.00
2018-05-01T00:01:35.258Z,0.00
2018-05-01T00:02:34.855Z,0.00
2018-05-01T00:03:34.761Z,0.00
2018-05-01T00:04:34.658Z,0.00
2018-05-01T00:05:34.554Z,0.00
2018-05-01T00:06:34.465Z,0.00
2018-05-01T00:07:34.361Z,0.00
2018-05-01T00:08:34.283Z,0.00
2018-05-01T00:09:34.167Z,0.00
2018-05-01T00:10:34.063Z,0.00
2018-05-01T00:11:33.961Z,0.00
2018-05-01T00:12:33.870Z,0.00
2018-05-01T00:13:33.766Z,0.00
2018-05-01T00:14:33.674Z,0.00
2018-05-01T00:15:33.571Z,0.00
2018-05-01T00:16:33.469Z,0.00
2018-05-01T00:17:33.379Z,0.00
2018-05-01T00:18:33.275Z,0.00
2018-05-01T00:19:33.171Z,0.00
2018-05-01T00:20:33.080Z,0.00
2018-05-01T00:21:32.980Z,0.00
2018-05-01T00:22:32.875Z,0.00
2018-05-01T00:23:32.784Z,0.00
2018-05-01T00:24:32.680Z,0.00
2018-05-01T00:25:32.589Z,0.00
2018-05-01T00:26:32.534Z,0.00
2018-05-01T00:27:32.382Z,0.00
2018-05-01T00:28:32.295Z,0.00
2018-05-01T00:29:32.189Z,0.00
2018-05-01T00:30:32.087Z,0.00
2018-05-01T00:31:31.993Z,0.00
2018-05-01T00:32:31.890Z,0.00
2018-05-01T00:33:31.800Z,0.00
2018-05-01T00:34:31.696Z,0.00
2018-05-01T00:35:31.594Z,0.00
2018-05-01T00:36:31.502Z,0.00
2018-05-01T00:37:31.398Z,0.00
2018-05-01T00:38:31.296Z,0.00
2018-05-01T00:39:31.205Z,0.00
2018-05-01T00:40:31.102Z,0.00
2018-05-01T00:41:31.010Z,0.00
2018-05-01T00:42:30.907Z,0.00
2018-05-01T00:43:30.804Z,0.00
2018-05-01T00:44:30.715Z,0.00
2018-05-01T00:45:30.611Z,0.00
2018-05-01T00:46:30.507Z,0.00
2018-05-01T00:47:30.428Z,0.00
2018-05-01T00:48:30.311Z,0.00
2018-05-01T00:49:30.210Z,0.00
2018-05-01T00:50:30.119Z,0.00
2018-05-01T00:51:30.079Z,0.00
2018-05-01T00:52:29.926Z,0.00
2018-05-01T00:53:29.820Z,0.00
2018-05-01T00:54:29.718Z,0.00
2018-05-01T00:55:29.627Z,0.00
2018-05-01T00:56:29.524Z,0.00
2018-05-01T00:57:29.420Z,0.00
2018-05-01T00:58:29.329Z,0.00
2018-05-01T00:59:29.225Z,0.00
2018-05-01T01:00:29.124Z,0.00
2018-05-01T01:01:29.033Z,0.00
2018-05-01T01:02:28.928Z,0.00
2018-05-01T01:03:28.837Z,0.00
2018-05-01T01:04:28.733Z,0.00
2018-05-01T01:05:28.631Z,0.00
2018-05-01T01:06:28.540Z,0.00
2018-05-01T01:07:28.436Z,0.00
2018-05-01T01:08:28.334Z,0.00
2018-05-01T01:09:28.255Z,0.00
2018-05-01T01:10:28.139Z,0.00
2018-05-01T01:11:28.052Z,0.00
2018-05-01T01:12:27.945Z,0.00
2018-05-01T01:13:27.849Z,0.00
2018-05-01T01:14:27.751Z,0.00
2018-05-01T01:15:27.648Z,0.00
2018-05-01T01:16:27.549Z,0.00
2018-05-01T01:17:27.454Z,0.00
2018-05-01T01:18:27.351Z,0.00
2018-05-01T01:19:27.259Z,0.00
2018-05-01T01:20:27.157Z,0.00
2018-05-01T01:21:27.054Z,0.00
2018-05-01T01:22:26.970Z,0.00
2018-05-01T01:23:26.862Z,0.00
2018-05-01T01:24:26.767Z,0.00
2018-05-01T01:25:26.664Z,0.00
2018-05-01T01:26:26.561Z,0.00
2018-05-01T01:27:26.471Z,0.00
2018-05-01T01:28:26.368Z,0.00
2018-05-01T01:29:26.266Z,0.00
2018-05-01T01:30:26.176Z,0.00
2018-05-01T01:31:26.075Z,0.00
2018-05-01T01:32:25.979Z,0.00
2018-05-01T01:33:25.878Z,0.00
2018-05-01T01:34:25.773Z,0.00
2018-05-01T01:35:25.683Z,0.00
2018-05-01T01:36:25.578Z,0.00
2018-05-01T01:37:25.487Z,0.00
2018-05-01T01:38:25.385Z,0.00
2018-05-01T01:39:25.282Z,0.00
2018-05-01T01:40:25.189Z,0.00
2018-05-01T01:41:25.086Z,0.00
2018-05-01T01:42:24.996Z,0.00
2018-05-01T01:43:24.897Z,0.00
2018-05-01T01:44:24.791Z,0.00
2018-05-01T01:45:24.712Z,0.00
2018-05-01T01:46:24.596Z,0.00
2018-05-01T01:47:24.505Z,0.00
2018-05-01T01:48:24.403Z,0.00
2018-05-01T01:49:24.310Z,0.00
2018-05-01T01:50:24.207Z,0.00
2018-05-01T01:51:24.104Z,0.00
2018-05-01T01:52:24.014Z,0.00
2018-05-01T01:53:23.910Z,0.00
2018-05-01T01:54:23.808Z,0.00
2018-05-01T01:55:23.715Z,0.00
2018-05-01T01:56:23.613Z,0.00
2018-05-01T01:57:23.521Z,0.00
2018-05-01T01:58:23.419Z,0.00
2018-05-01T01:59:23.327Z,0.00
2018-05-01T02:00:23.224Z,0.00
2018-05-01T02:01:23.121Z,0.00
2018-05-01T02:02:23.032Z,0.00
2018-05-01T02:03:22.932Z,0.00
2018-05-01T02:04:22.836Z,0.00
2018-05-01T02:05:22.732Z,0.00
2018-05-01T02:06:22.943Z,0.00
2018-05-01T02:07:22.539Z,0.00
2018-05-01T02:08:22.436Z,0.00
2018-05-01T02:09:22.344Z,0.00
2018-05-01T02:10:22.241Z,0.00
2018-05-01T02:11:22.151Z,0.00
2018-05-01T02:12:22.048Z,0.00
2018-05-01T02:13:21.956Z,0.00
2018-05-01T02:14:21.852Z,0.00
2018-05-01T02:15:21.750Z,0.00
2018-05-01T02:16:21.668Z,0.00
2018-05-01T02:17:21.556Z,0.00
2018-05-01T02:18:21.498Z,0.00
2018-05-01T02:19:21.361Z,0.00
2018-05-01T02:20:21.271Z,0.00
2018-05-01T02:21:21.167Z,0.00
2018-05-01T02:22:21.075Z,0.00
2018-05-01T02:23:20.977Z,0.00
2018-05-01T02:24:20.869Z,0.00
2018-05-01T02:25:20.779Z,0.00
2018-05-01T02:26:20.678Z,0.00
2018-05-01T02:27:20.585Z,0.00
2018-05-01T02:28:20.481Z,0.00
2018-05-01T02:29:20.391Z,0.00
2018-05-01T02:30:20.299Z,0.00
2018-05-01T02:31:20.196Z,0.00
2018-05-01T02:32:20.093Z,0.00
2018-05-01T02:33:19.990Z,0.00
2018-05-01T02:34:19.899Z,0.00
2018-05-01T02:35:19.796Z,0.00
2018-05-01T02:36:19.704Z,0.00
2018-05-01T02:37:19.601Z,0.00
2018-05-01T02:38:19.511Z,0.00
2018-05-01T02:39:19.408Z,0.00
2018-05-01T02:40:19.331Z,0.00
2018-05-01T02:41:19.302Z,0.00
2018-05-01T02:42:19.110Z,0.00
2018-05-01T02:43:19.019Z,0.00
2018-05-01T02:44:18.917Z,0.00
2018-05-01T02:45:18.826Z,0.00
2018-05-01T02:46:18.723Z,0.00
2018-05-01T02:47:18.632Z,0.00
2018-05-01T02:48:18.551Z,0.00
2018-05-01T02:49:18.427Z,0.00
2018-05-01T02:50:18.334Z,0.00
2018-05-01T02:51:18.230Z,0.00
2018-05-01T02:52:18.140Z,0.00
2018-05-01T02:53:18.036Z,0.00
2018-05-01T02:54:17.945Z,0.00
2018-05-01T02:55:17.843Z,0.00
2018-05-01T02:56:17.740Z,0.00
2018-05-01T02:57:17.649Z,0.00
2018-05-01T02:58:17.544Z,0.00
2018-05-01T02:59:17.453Z,0.00
2018-05-01T03:00:17.351Z,0.00
2018-05-01T03:01:17.260Z,0.00
2018-05-01T03:02:17.157Z,0.00
2018-05-01T03:03:17.065Z,0.00
2018-05-01T03:04:16.961Z,0.00
2018-05-01T03:05:16.863Z,0.00
2018-05-01T03:06:16.768Z,0.00
2018-05-01T03:07:16.677Z,0.00
2018-05-01T03:08:16.573Z,0.00
2018-05-01T03:09:16.473Z,0.00
2018-05-01T03:10:16.380Z,0.00
2018-05-01T03:11:16.277Z,0.00
2018-05-01T03:12:16.179Z,0.00
2018-05-01T03:13:16.085Z,0.00
2018-05-01T03:14:15.979Z,0.00
2018-05-01T03:15:15.888Z,0.00
2018-05-01T03:16:15.784Z,0.00
2018-05-01T03:17:15.693Z,0.00
2018-05-01T03:18:15.590Z,0.00
2018-05-01T03:19:15.502Z,0.00
2018-05-01T03:20:15.403Z,0.00
2018-05-01T03:21:15.293Z,0.00
2018-05-01T03:22:15.203Z,0.00
2018-05-01T03:23:15.101Z,0.00
2018-05-01T03:24:15.009Z,0.00
2018-05-01T03:25:14.945Z,0.00
2018-05-01T03:26:14.813Z,0.00
2018-05-01T03:27:14.710Z,0.00
2018-05-01T03:28:14.608Z,0.00
2018-05-01T03:29:14.516Z,0.00
2018-05-01T03:30:14.414Z,0.00
2018-05-01T03:31:14.322Z,0.00
2018-05-01T03:32:14.218Z,0.00
2018-05-01T03:33:14.128Z,0.00
2018-05-01T03:34:14.026Z,0.00
2018-05-01T03:35:13.933Z,0.00
2018-05-01T03:36:13.830Z,5.63
2018-05-01T03:37:13.728Z,5.63
2018-05-01T03:38:13.640Z,5.63
2018-05-01T03:39:13.629Z,5.63
2018-05-01T03:40:13.441Z,5.63
2018-05-01T03:41:13.338Z,5.63
2018-05-01T03:42:13.251Z,5.63
2018-05-01T03:43:13.146Z,11.25
2018-05-01T03:44:13.055Z,11.25
2018-05-01T03:45:12.950Z,11.25
2018-05-01T03:46:12.861Z,11.25
2018-05-01T03:47:12.757Z,11.25
2018-05-01T03:48:12.653Z,11.25
2018-05-01T03:49:12.562Z,11.25
2018-05-01T03:50:12.459Z,16.88
2018-05-01T03:51:12.369Z,16.88
2018-05-01T03:52:12.265Z,16.88
2018-05-01T03:53:12.174Z,16.88
2018-05-01T03:54:12.070Z,16.88
2018-05-01T03:55:11.968Z,16.88
2018-05-01T03:56:11.949Z,16.88
2018-05-01T03:57:11.773Z,16.88
2018-05-01T03:58:11.682Z,16.88
2018-05-01T03:59:11.595Z,22.50
2018-05-01T04:00:11.489Z,22.50
2018-05-01T04:01:11.385Z,22.50
2018-05-01T04:02:11.298Z,22.50
2018-05-01T04:03:11.191Z,22.50
2018-05-01T04:04:11.088Z,22.50
2018-05-01T04:05:10.997Z,28.13
2018-05-01T04:06:11.193Z,28.13
2018-05-01T04:07:10.802Z,28.13
2018-05-01T04:08:10.699Z,28.13
2018-05-01T04:09:10.609Z,28.13
2018-05-01T04:10:10.509Z,33.75
2018-05-01T04:11:10.414Z,33.75
2018-05-01T04:12:10.311Z,33.75
2018-05-01T04:13:10.207Z,39.38
2018-05-01T04:14:10.117Z,45.00
2018-05-01T04:15:10.014Z,45.00
2018-05-01T04:16:09.922Z,56.25
2018-05-01T04:17:09.857Z,61.88
2018-05-01T04:18:09.729Z,73.13
2018-05-01T04:19:09.625Z,78.75
2018-05-01T04:20:09.523Z,78.75
2018-05-01T04:21:09.431Z,84.38
2018-05-01T04:22:09.328Z,84.38
2018-05-01T04:23:09.238Z,90.00
2018-05-01T04:24:09.134Z,90.00
2018-05-01T04:25:09.042Z,95.63
2018-05-01T04:26:09.189Z,101.25
2018-05-01T04:27:08.837Z,101.25
2018-05-01T04:28:08.746Z,106.88
2018-05-01T04:29:08.642Z,112.50
2018-05-01T04:30:08.550Z,112.50
2018-05-01T04:31:08.448Z,118.13
2018-05-01T04:32:08.357Z,112.50
2018-05-01T04:33:08.254Z,112.50
2018-05-01T04:34:08.162Z,106.88
2018-05-01T04:35:08.059Z,101.25
2018-05-01T04:36:07.957Z,101.25
2018-05-01T04:37:07.869Z,106.88
2018-05-01T04:38:07.763Z,118.13
2018-05-01T04:39:07.671Z,123.75
2018-05-01T04:40:07.571Z,129.38
2018-05-01T04:41:07.777Z,129.38
2018-05-01T04:42:07.374Z,129.38
2018-05-01T04:43:07.282Z,129.38
2018-05-01T04:44:07.180Z,123.75
2018-05-01T04:45:07.089Z,118.13
2018-05-01T04:46:06.986Z,123.75
2018-05-01T04:47:06.895Z,129.38
2018-05-01T04:48:06.791Z,129.38
2018-05-01T04:49:06.690Z,135.00
2018-05-01T04:50:06.598Z,135.00
2018-05-01T04:51:06.506Z,135.00
2018-05-01T04:52:06.404Z,129.38
2018-05-01T04:53:06.303Z,129.38
2018-05-01T04:54:06.209Z,135.00
2018-05-01T04:55:06.106Z,135.00
2018-05-01T04:56:06.014Z,140.63
2018-05-01T04:57:05.911Z,135.00
2018-05-01T04:58:05.822Z,140.63
2018-05-01T04:59:05.718Z,146.25
2018-05-01T05:00:05.629Z,140.63
2018-05-01T05:01:05.525Z,135.00
2018-05-01T05:02:05.433Z,135.00
2018-05-01T05:03:05.329Z,129.38
2018-05-01T05:04:05.239Z,123.75
2018-05-01T05:05:05.135Z,106.88
2018-05-01T05:06:05.045Z,106.88
2018-05-01T05:07:04.943Z,106.88
2018-05-01T05:08:04.850Z,106.88
2018-05-01T05:09:04.747Z,101.25
2018-05-01T05:10:04.656Z,95.63
2018-05-01T05:11:04.552Z,95.63
2018-05-01T05:12:04.465Z,90.00
2018-05-01T05:13:04.361Z,90.00
2018-05-01T05:14:04.268Z,90.00
2018-05-01T05:15:04.165Z,95.63
2018-05-01T05:16:04.073Z,95.63
2018-05-01T05:17:03.983Z,90.00
2018-05-01T05:18:03.879Z,90.00
2018-05-01T05:19:03.777Z,95.63
2018-05-01T05:20:03.688Z,118.13
2018-05-01T05:21:03.581Z,123.75
2018-05-01T05:22:03.491Z,101.25
2018-05-01T05:23:03.388Z,106.88
2018-05-01T05:24:03.300Z,118.13
2018-05-01T05:25:03.193Z,118.13
2018-05-01T05:26:03.109Z,123.75
2018-05-01T05:27:02.999Z,123.75
2018-05-01T05:28:02.908Z,151.88
2018-05-01T05:29:02.805Z,163.13
2018-05-01T05:30:02.716Z,185.63
2018-05-01T05:31:02.612Z,168.75
2018-05-01T05:32:02.526Z,163.13
2018-05-01T05:33:02.421Z,174.38
2018-05-01T05:34:02.327Z,225.00
2018-05-01T05:35:02.224Z,360.00
2018-05-01T05:36:02.132Z,174.38
2018-05-01T05:37:02.030Z,146.25
2018-05-01T05:38:01.939Z,191.25
2018-05-01T05:39:01.836Z,264.38
2018-05-01T05:40:01.744Z,230.63
2018-05-01T05:41:01.941Z,444.38
2018-05-01T05:42:01.551Z,371.25
2018-05-01T05:43:01.448Z,236.25
2018-05-01T05:44:01.356Z,337.50
2018-05-01T05:45:01.253Z,478.13
2018-05-01T05:46:01.162Z,433.13
2018-05-01T05:47:01.072Z,466.88
2018-05-01T05:48:00.968Z,680.63
2018-05-01T05:49:00.877Z,703.13
2018-05-01T05:50:00.773Z,708.75
2018-05-01T05:51:00.682Z,675.00
2018-05-01T05:52:00.596Z,652.50
2018-05-01T05:53:00.489Z,663.75
2018-05-01T05:54:00.397Z,669.38
2018-05-01T05:55:00.308Z,691.88
2018-05-01T05:56:00.204Z,748.13
2018-05-01T05:57:00.125Z,765.00
2018-05-01T05:58:00.023Z,793.13
2018-05-01T05:58:59.919Z,787.50
2018-05-01T05:59:59.827Z,770.63
2018-05-01T06:01:00.099Z,776.25
2018-05-01T06:01:59.645Z,832.50
2018-05-01T06:02:59.556Z,894.38
2018-05-01T06:03:59.452Z,866.25
2018-05-01T06:04:59.383Z,793.13
2018-05-01T06:05:59.271Z,765.00
2018-05-01T06:06:59.179Z,759.38
2018-05-01T06:07:59.089Z,753.75
2018-05-01T06:08:58.997Z,753.75
2018-05-01T06:09:58.907Z,748.13
2018-05-01T06:10:58.817Z,787.50
2018-05-01T06:11:58.726Z,793.13
2018-05-01T06:12:58.623Z,810.00
2018-05-01T06:13:58.531Z,826.88
2018-05-01T06:14:58.441Z,843.75
2018-05-01T06:15:58.349Z,855.00
2018-05-01T06:16:58.259Z,832.50
2018-05-01T06:17:58.168Z,832.50
2018-05-01T06:18:58.078Z,843.75
2018-05-01T06:19:57.986Z,849.38
2018-05-01T06:20:58.195Z,860.63
2018-05-01T06:21:57.858Z,871.88
2018-05-01T06:22:57.715Z,894.38
2018-05-01T06:23:57.623Z,894.38
2018-05-01T06:24:57.533Z,900.00
2018-05-01T06:25:57.441Z,905.63
2018-05-01T06:26:57.351Z,922.50
2018-05-01T06:27:57.272Z,922.50
2018-05-01T06:28:57.170Z,933.75
2018-05-01T06:29:57.079Z,933.75
2018-05-01T06:30:57.041Z,945.00
2018-05-01T06:31:56.897Z,945.00
2018-05-01T06:32:56.817Z,950.63
2018-05-01T06:33:56.727Z,961.88
2018-05-01T06:34:56.636Z,990.00
2018-05-01T06:35:56.547Z,1040.63
2018-05-01T06:36:56.527Z,1108.13
2018-05-01T06:37:56.365Z,1186.88
2018-05-01T06:38:56.273Z,1220.63
2018-05-01T06:39:56.183Z,1535.63
2018-05-01T06:40:56.091Z,1918.13
2018-05-01T06:41:56.003Z,1935.00
2018-05-01T06:42:55.910Z,1906.88
2018-05-01T06:43:55.892Z,1929.38
2018-05-01T06:44:55.728Z,1935.00
2018-05-01T06:45:55.637Z,1968.75
2018-05-01T06:46:55.559Z,1985.63
2018-05-01T06:47:55.468Z,1996.88
2018-05-01T06:48:55.379Z,2013.75
2018-05-01T06:49:55.287Z,2025.00
2018-05-01T06:50:55.197Z,2081.25
2018-05-01T06:51:55.104Z,2098.13
2018-05-01T06:52:55.016Z,1946.25
2018-05-01T06:53:54.923Z,1991.25
2018-05-01T06:54:54.833Z,2008.13
2018-05-01T06:55:54.756Z,1676.25
2018-05-01T06:56:54.667Z,1777.50
2018-05-01T06:57:54.572Z,2205.00
2018-05-01T06:58:54.481Z,1940.63
2018-05-01T06:59:54.393Z,2019.38
2018-05-01T07:00:54.300Z,2323.13
2018-05-01T07:01:54.210Z,2396.25
2018-05-01T07:02:54.119Z,2435.63
2018-05-01T07:03:54.042Z,2542.50
2018-05-01T07:04:53.951Z,2604.38
2018-05-01T07:05:53.858Z,2497.50
2018-05-01T07:06:53.772Z,2570.63
2018-05-01T07:07:53.676Z,2598.75
2018-05-01T07:08:53.594Z,2570.63
2018-05-01T07:09:53.508Z,1929.38
2018-05-01T07:10:53.417Z,2463.75
2018-05-01T07:11:53.326Z,1220.63
2018-05-01T07:12:53.239Z,1485.00
2018-05-01T07:13:53.145Z,2536.88
2018-05-01T07:14:53.055Z,1608.75
2018-05-01T07:15:53.025Z,2497.50
2018-05-01T07:16:52.885Z,1816.88
2018-05-01T07:17:52.793Z,2250.00
2018-05-01T07:18:52.703Z,2171.25
2018-05-01T07:19:52.612Z,2531.25
2018-05-01T07:20:52.772Z,2165.63
2018-05-01T07:21:52.431Z,2328.75
2018-05-01T07:22:52.352Z,2818.13
2018-05-01T07:23:52.264Z,2649.38
2018-05-01T07:24:52.170Z,2947.50
2018-05-01T07:25:52.080Z,579.38
2018-05-01T07:26:51.988Z,2553.75
2018-05-01T07:27:51.898Z,2351.25
2018-05-01T07:28:51.806Z,2092.50
2018-05-01T07:29:51.728Z,1687.50
2018-05-01T07:30:51.638Z,1591.88
2018-05-01T07:31:51.546Z,1530.00
2018-05-01T07:32:51.461Z,1108.13
2018-05-01T07:33:51.365Z,787.50
2018-05-01T07:34:51.275Z,725.63
2018-05-01T07:35:51.183Z,793.13
2018-05-01T07:36:51.093Z,658.13
2018-05-01T07:37:51.001Z,658.13
2018-05-01T07:38:50.912Z,652.50
2018-05-01T07:39:50.819Z,573.75
2018-05-01T07:40:50.980Z,517.50
2018-05-01T07:41:50.730Z,517.50
2018-05-01T07:42:50.548Z,562.50
2018-05-01T07:43:50.457Z,573.75
2018-05-01T07:44:50.367Z,540.00
2018-05-01T07:45:50.275Z,511.88
2018-05-01T07:46:50.185Z,495.00
2018-05-01T07:47:50.093Z,483.75
2018-05-01T07:48:50.004Z,478.13
2018-05-01T07:49:49.912Z,466.88
2018-05-01T07:50:49.824Z,466.88
2018-05-01T07:51:49.722Z,495.00
2018-05-01T07:52:49.627Z,511.88
2018-05-01T07:53:49.537Z,517.50
2018-05-01T07:54:49.445Z,517.50
2018-05-01T07:55:49.355Z,523.13
2018-05-01T07:56:49.264Z,523.13
2018-05-01T07:57:49.160Z,528.75
2018-05-01T07:58:49.071Z,528.75
2018-05-01T07:59:48.979Z,528.75
2018-05-01T08:00:48.888Z,562.50
2018-05-01T08:01:48.798Z,540.00
2018-05-01T08:02:48.694Z,523.13
2018-05-01T08:03:48.604Z,562.50
2018-05-01T08:04:48.526Z,607.50
2018-05-01T08:05:48.422Z,697.50
2018-05-01T08:06:48.331Z,720.00
2018-05-01T08:07:48.227Z,675.00
2018-05-01T08:08:48.137Z,601.88
2018-05-01T08:09:48.046Z,585.00
2018-05-01T08:10:47.955Z,551.25
2018-05-01T08:11:47.852Z,523.13
2018-05-01T08:12:47.762Z,506.25
2018-05-01T08:13:47.670Z,562.50
2018-05-01T08:14:47.578Z,607.50
2018-05-01T08:15:47.477Z,607.50
2018-05-01T08:16:47.386Z,624.38
2018-05-01T08:17:47.294Z,646.88
2018-05-01T08:18:47.204Z,641.25
2018-05-01T08:19:47.100Z,635.63
2018-05-01T08:20:47.010Z,562.50
2018-05-01T08:21:46.919Z,556.88
2018-05-01T08:22:46.827Z,579.38
2018-05-01T08:23:46.725Z,635.63
2018-05-01T08:24:46.634Z,540.00
2018-05-01T08:25:46.842Z,500.63
2018-05-01T08:26:46.452Z,500.63
2018-05-01T08:27:46.349Z,551.25
2018-05-01T08:28:46.258Z,714.38
2018-05-01T08:29:46.204Z,798.75
2018-05-01T08:30:46.076Z,714.38
2018-05-01T08:31:45.973Z,765.00
2018-05-01T08:32:45.882Z,866.25
2018-05-01T08:33:45.791Z,815.63
2018-05-01T08:34:45.701Z,759.38
2018-05-01T08:35:45.600Z,765.00
2018-05-01T08:36:45.506Z,742.50
2018-05-01T08:37:45.452Z,691.88
2018-05-01T08:38:45.328Z,652.50
2018-05-01T08:39:45.224Z,624.38
2018-05-01T08:40:45.132Z,590.63
2018-05-01T08:41:45.040Z,590.63
2018-05-01T08:42:44.938Z,596.25
2018-05-01T08:43:44.847Z,590.63
2018-05-01T08:44:44.771Z,596.25
2018-05-01T08:45:44.664Z,624.38
2018-05-01T08:46:44.561Z,849.38
2018-05-01T08:47:44.469Z,708.75
2018-05-01T08:48:44.380Z,1237.50
2018-05-01T08:49:44.289Z,2086.88
2018-05-01T08:50:44.185Z,1181.25
2018-05-01T08:51:44.098Z,658.13
2018-05-01T08:52:44.004Z,736.88
2018-05-01T08:53:43.900Z,1096.88
2018-05-01T08:54:43.810Z,2902.50
2018-05-01T08:55:43.725Z,3121.88
2018-05-01T08:56:43.615Z,2587.50
2018-05-01T08:57:43.525Z,3420.00
2018-05-01T08:58:43.433Z,2458.13
2018-05-01T08:59:43.331Z,2705.63
2018-05-01T09:00:43.239Z,2390.63
2018-05-01T09:01:43.148Z,2587.50
2018-05-01T09:02:43.063Z,1665.00
2018-05-01T09:03:42.956Z,4179.38
2018-05-01T09:04:42.867Z,2306.25
2018-05-01T09:05:42.774Z,3903.75
2018-05-01T09:06:42.682Z,3965.63
2018-05-01T09:07:42.581Z,2745.00
2018-05-01T09:08:42.489Z,3830.63
2018-05-01T09:09:42.396Z,3650.63
2018-05-01T09:10:42.308Z,1912.50
2018-05-01T09:11:42.217Z,3960.00
2018-05-01T09:12:42.112Z,2514.38
2018-05-01T09:13:42.022Z,3937.50
2018-05-01T09:14:41.930Z,4230.00
2018-05-01T09:15:41.840Z,4410.00
2018-05-01T09:16:41.748Z,4286.25
2018-05-01T09:17:41.674Z,3931.88
2018-05-01T09:18:41.567Z,3493.13
2018-05-01T09:19:41.477Z,4376.25
2018-05-01T09:20:41.400Z,3656.25
2018-05-01T09:21:41.295Z,3931.88
2018-05-01T09:22:41.206Z,4145.63
2018-05-01T09:23:41.113Z,3082.50
2018-05-01T09:24:41.036Z,2784.38
2018-05-01T09:25:40.943Z,2632.50
2018-05-01T09:26:40.855Z,2525.63
2018-05-01T09:27:40.761Z,3999.38
2018-05-01T09:28:40.671Z,4308.75
2018-05-01T09:29:40.580Z,4280.63
2018-05-01T09:30:40.502Z,4342.50
2018-05-01T09:31:40.412Z,4426.88
2018-05-01T09:32:40.319Z,4365.00
2018-05-01T09:33:40.231Z,4218.75
2018-05-01T09:34:40.138Z,4005.00
2018-05-01T09:35:40.051Z,4151.25
2018-05-01T09:36:39.970Z,4258.13
2018-05-01T09:37:39.891Z,4179.38
2018-05-01T09:38:39.788Z,4179.38
2018-05-01T09:39:39.697Z,4089.38
2018-05-01T09:40:39.869Z,4190.63
2018-05-01T09:41:39.528Z,4275.00
2018-05-01T09:42:39.451Z,4185.00
2018-05-01T09:43:39.361Z,4207.50
2018-05-01T09:44:39.272Z,4207.50
2018-05-01T09:45:39.198Z,4331.25
2018-05-01T09:46:39.099Z,4348.13
2018-05-01T09:47:39.061Z,4213.13
2018-05-01T09:48:38.930Z,4123.13
2018-05-01T09:49:38.839Z,4117.50
2018-05-01T09:50:38.760Z,4376.25
2018-05-01T09:51:38.671Z,4443.75
2018-05-01T09:52:38.579Z,4083.75
2018-05-01T09:53:38.500Z,4314.38
2018-05-01T09:54:38.410Z,4505.63
2018-05-01T09:55:38.334Z,4646.25
2018-05-01T09:56:38.254Z,4747.50
2018-05-01T09:57:38.163Z,4680.00
2018-05-01T09:58:38.072Z,4404.38
2018-05-01T09:59:37.994Z,4252.50
2018-05-01T10:00:38.204Z,4578.75
2018-05-01T10:01:37.825Z,4747.50
2018-05-01T10:02:37.735Z,4410.00
2018-05-01T10:03:37.655Z,4246.88
2018-05-01T10:04:37.569Z,1929.38
2018-05-01T10:05:37.486Z,4837.50
2018-05-01T10:06:37.408Z,2885.63
2018-05-01T10:07:37.313Z,4792.50
2018-05-01T10:08:37.230Z,4826.25
2018-05-01T10:09:37.163Z,4651.88
2018-05-01T10:10:37.070Z,4770.00
2018-05-01T10:11:36.979Z,4702.50
2018-05-01T10:12:36.901Z,4595.63
2018-05-01T10:13:36.809Z,4342.50
2018-05-01T10:14:36.731Z,4713.75
2018-05-01T10:15:36.652Z,4635.00
2018-05-01T10:16:36.567Z,4775.63
2018-05-01T10:17:36.485Z,4741.88
2018-05-01T10:18:36.395Z,4674.38
2018-05-01T10:19:36.314Z,4421.25
2018-05-01T10:20:36.225Z,4336.88
2018-05-01T10:21:36.147Z,4393.13
2018-05-01T10:22:36.069Z,4089.38
2018-05-01T10:23:35.976Z,3993.75
2018-05-01T10:24:35.899Z,4359.38
2018-05-01T10:25:35.820Z,4269.38
2018-05-01T10:26:35.731Z,4314.38
2018-05-01T10:27:35.652Z,4314.38
2018-05-01T10:28:35.580Z,4398.75
2018-05-01T10:29:35.481Z,4410.00
2018-05-01T10:30:35.405Z,1850.63
2018-05-01T10:31:35.313Z,3363.75
2018-05-01T10:32:35.230Z,5130.00
2018-05-01T10:33:35.159Z,5006.25
2018-05-01T10:34:35.065Z,5090.63
2018-05-01T10:35:34.986Z,4950.00
2018-05-01T10:36:34.908Z,4798.13
2018-05-01T10:37:34.818Z,4916.25
2018-05-01T10:38:34.773Z,4595.63
2018-05-01T10:39:34.650Z,4685.63
2018-05-01T10:40:34.571Z,4876.88
2018-05-01T10:41:34.492Z,5006.25
2018-05-01T10:42:34.414Z,5146.88
2018-05-01T10:43:34.324Z,5265.00
2018-05-01T10:44:34.245Z,5135.63
2018-05-01T10:45:34.156Z,5096.25
2018-05-01T10:46:34.076Z,5146.88
2018-05-01T10:47:33.998Z,5298.75
2018-05-01T10:48:33.912Z,5602.50
2018-05-01T10:49:33.830Z,5591.25
2018-05-01T10:50:33.750Z,4882.50
2018-05-01T10:51:33.672Z,4381.88
2018-05-01T10:52:33.581Z,4258.13
2018-05-01T10:53:33.501Z,455.63
2018-05-01T10:54:33.469Z,3988.13
2018-05-01T10:55:33.345Z,3830.63
2018-05-01T10:56:33.255Z,3864.38
2018-05-01T10:57:33.189Z,641.25
2018-05-01T10:58:33.098Z,781.88
2018-05-01T10:59:33.021Z,489.38
2018-05-01T11:00:32.969Z,3802.50
2018-05-01T11:01:32.850Z,3723.75
2018-05-01T11:02:32.772Z,4263.75
2018-05-01T11:03:32.683Z,4775.63
2018-05-01T11:04:32.603Z,5124.38
2018-05-01T11:05:32.524Z,5546.25
2018-05-01T11:06:32.434Z,4640.63
2018-05-01T11:07:32.355Z,3999.38
2018-05-01T11:08:32.277Z,3611.25
2018-05-01T11:09:32.186Z,2716.88
2018-05-01T11:10:32.109Z,433.13
2018-05-01T11:11:32.018Z,2559.38
2018-05-01T11:12:31.938Z,2441.25
2018-05-01T11:13:31.861Z,2311.88
2018-05-01T11:14:31.771Z,2233.13
2018-05-01T11:15:31.692Z,2176.88
2018-05-01T11:16:31.601Z,2171.25
2018-05-01T11:17:31.532Z,2154.38
2018-05-01T11:18:31.445Z,2171.25
2018-05-01T11:19:31.356Z,2193.75
2018-05-01T11:20:31.276Z,2250.00
2018-05-01T11:21:31.184Z,2109.38
2018-05-01T11:22:31.106Z,978.75
2018-05-01T11:23:31.015Z,360.00
2018-05-01T11:24:31.043Z,320.63
2018-05-01T11:25:30.846Z,331.88
2018-05-01T11:26:30.768Z,421.88
2018-05-01T11:27:30.693Z,466.88
2018-05-01T11:28:30.661Z,433.13
2018-05-01T11:29:30.521Z,421.88
2018-05-01T11:30:30.429Z,365.63
2018-05-01T11:31:30.350Z,348.75
2018-05-01T11:32:30.260Z,376.88
2018-05-01T11:33:30.172Z,348.75
2018-05-01T11:34:30.091Z,360.00
2018-05-01T11:35:30.001Z,348.75
2018-05-01T11:36:29.925Z,309.38
2018-05-01T11:37:29.832Z,343.13
2018-05-01T11:38:29.740Z,483.75
2018-05-01T11:39:29.649Z,607.50
2018-05-01T11:40:29.836Z,630.00
2018-05-01T11:41:29.480Z,624.38
2018-05-01T11:42:29.389Z,506.25
2018-05-01T11:43:29.299Z,405.00
2018-05-01T11:44:29.208Z,450.00
2018-05-01T11:45:29.121Z,573.75
2018-05-01T11:46:29.092Z,478.13
2018-05-01T11:47:28.947Z,433.13
2018-05-01T11:48:28.890Z,500.63
2018-05-01T11:49:28.766Z,618.75
2018-05-01T11:50:28.680Z,601.88
2018-05-01T11:51:28.586Z,669.38
2018-05-01T11:52:28.494Z,658.13
2018-05-01T11:53:28.403Z,573.75
2018-05-01T11:54:28.316Z,511.88
2018-05-01T11:55:28.223Z,630.00
2018-05-01T11:56:28.131Z,663.75
2018-05-01T11:57:28.039Z,697.50
2018-05-01T11:58:27.953Z,590.63
2018-05-01T11:59:27.858Z,416.25
2018-05-01T12:00:27.768Z,725.63
2018-05-01T12:01:27.676Z,1946.25
2018-05-01T12:02:27.589Z,376.88
2018-05-01T12:03:27.495Z,438.75
2018-05-01T12:04:27.511Z,506.25
2018-05-01T12:05:27.313Z,483.75
2018-05-01T12:06:27.224Z,489.38
2018-05-01T12:07:27.132Z,624.38
2018-05-01T12:08:27.046Z,680.63
2018-05-01T12:09:26.949Z,736.88
2018-05-01T12:10:26.848Z,793.13
2018-05-01T12:11:26.757Z,579.38
2018-05-01T12:12:26.678Z,360.00
2018-05-01T12:13:26.574Z,326.25
2018-05-01T12:14:26.490Z,393.75
2018-05-01T12:15:26.393Z,455.63
2018-05-01T12:16:26.314Z,540.00
2018-05-01T12:17:26.211Z,618.75
2018-05-01T12:18:26.121Z,573.75
2018-05-01T12:19:26.030Z,545.63
2018-05-01T12:20:25.938Z,511.88
2018-05-01T12:21:25.849Z,495.00
2018-05-01T12:22:25.761Z,360.00
2018-05-01T12:23:25.669Z,309.38
2018-05-01T12:24:25.578Z,326.25
2018-05-01T12:25:25.486Z,438.75
2018-05-01T12:26:25.394Z,528.75
2018-05-01T12:27:25.291Z,506.25
2018-05-01T12:28:25.200Z,478.13
2018-05-01T12:29:25.108Z,416.25
2018-05-01T12:30:25.019Z,292.50
2018-05-01T12:31:24.927Z,292.50
2018-05-01T12:32:24.836Z,399.38
2018-05-01T12:33:24.745Z,444.38
2018-05-01T12:34:24.655Z,506.25
2018-05-01T12:35:24.563Z,455.63
2018-05-01T12:36:24.531Z,376.88